Time;durP1;ratioP1;P1;durP2;ratioP2;P2;SDS_P1;SDS_P2;PMS_P1;PMS_P2;Temp;Humidity;BMP_temperature;BMP_pressure;BME280_temperature;BME280_humidity;BME280_pressure;Samples;Min_cycle;Max_cycle;Signal;HPM_P1;HPM_P2
2021/01/03 00:00:26;;;;;;;4.57;2.70;;;;;;;4.96;68.96;93562.59;5050591;28;20025;-38
2021/01/03 00:02:51;;;;;;;10.05;3.58;;;;;;;5.07;68.49;93564.47;5050516;28;20520;-38
2021/01/03 00:05:20;;;;;;;6.07;2.90;;;;;;;5.09;68.86;93581.16;5050637;28;20033;-38
2021/01/03 00:07:45;;;;;;;5.93;3.00;;;;;;;5.14;68.53;93558.47;5052234;28;20028;-38
2021/01/03 00:10:12;;;;;;;6.57;3.35;;;;;;;5.30;67.88;93579.47;5054205;28;20468;-38
2021/01/03 00:12:38;;;;;;;7.93;3.92;;;;;;;5.29;67.69;93573.25;5054241;28;20611;-38
2021/01/03 00:15:06;;;;;;;5.63;3.03;;;;;;;5.37;67.40;93576.19;5054101;28;20029;-39
2021/01/03 00:17:32;;;;;;;7.85;3.40;;;;;;;5.44;67.42;93574.84;5054098;28;20028;-38
2021/01/03 00:19:57;;;;;;;11.32;4.97;;;;;;;5.45;67.20;93568.88;5053882;28;20490;-40
2021/01/03 00:22:22;;;;;;;7.72;3.47;;;;;;;5.51;66.98;93580.53;5053929;28;20025;-39
2021/01/03 00:24:48;;;;;;;10.63;3.45;;;;;;;5.47;67.08;93584.78;5053991;28;20033;-41
2021/01/03 00:27:14;;;;;;;4.85;3.22;;;;;;;5.38;67.73;93594.09;5053920;28;20086;-41
2021/01/03 00:29:40;;;;;;;6.82;3.10;;;;;;;5.40;67.25;93591.56;5054042;28;20555;-40
2021/01/03 00:32:06;;;;;;;9.40;4.45;;;;;;;5.41;68.03;93584.84;5053789;28;20029;-39
2021/01/03 00:34:31;;;;;;;5.82;3.65;;;;;;;5.34;68.33;93585.41;5053748;28;20052;-39
2021/01/03 00:36:57;;;;;;;8.65;4.57;;;;;;;5.18;69.41;93578.06;5053845;28;20116;-39
2021/01/03 00:39:22;;;;;;;12.98;5.93;;;;;;;4.87;71.00;93573.88;5053474;28;20025;-39
2021/01/03 00:41:49;;;;;;;9.05;6.05;;;;;;;4.74;71.62;93570.97;5053653;28;20068;-39
2021/01/03 00:44:14;;;;;;;6.90;3.55;;;;;;;4.84;70.29;93574.13;5053444;28;20032;-39
2021/01/03 00:46:40;;;;;;;8.13;4.90;;;;;;;4.86;70.68;93566.16;5053271;28;20049;-38
2021/01/03 00:49:06;;;;;;;5.90;4.03;;;;;;;4.93;70.60;93568.34;5053654;28;20029;-39
2021/01/03 00:51:31;;;;;;;4.00;3.30;;;;;;;5.01;69.85;93566.53;5053369;28;20036;-39
2021/01/03 00:53:57;;;;;;;8.95;3.13;;;;;;;5.02;69.84;93566.03;5053539;28;20029;-38
2021/01/03 00:56:24;;;;;;;9.88;3.72;;;;;;;5.02;70.04;93565.28;5053308;28;20493;-38
2021/01/03 00:58:49;;;;;;;8.52;3.83;;;;;;;5.07;69.30;93569.97;5053217;28;20060;-39
2021/01/03 01:01:15;;;;;;;5.35;3.20;;;;;;;5.16;69.13;93564.16;5053225;28;20067;-39
2021/01/03 01:03:40;;;;;;;4.70;3.33;;;;;;;5.27;68.80;93564.06;5053182;28;20025;-40
2021/01/03 01:06:05;;;;;;;4.32;3.17;;;;;;;5.48;67.51;93567.13;5053143;28;20036;-42
2021/01/03 01:08:31;;;;;;;9.05;3.35;;;;;;;5.53;67.08;93560.81;5053099;28;20031;-43
2021/01/03 01:10:56;;;;;;;5.65;2.63;;;;;;;5.58;67.42;93557.31;5053069;28;20020;-43
2021/01/03 01:13:22;;;;;;;5.68;3.38;;;;;;;5.62;67.41;93563.22;5052899;28;20526;-42
2021/01/03 01:15:47;;;;;;;3.90;3.28;;;;;;;5.73;66.90;93561.13;5052762;28;20483;-40
2021/01/03 01:18:13;;;;;;;6.55;3.15;;;;;;;5.83;66.64;93547.81;5052443;28;20031;-43
2021/01/03 01:20:39;;;;;;;5.93;3.25;;;;;;;5.80;66.96;93546.13;5052125;28;20029;-41
2021/01/03 01:23:04;;;;;;;6.28;3.53;;;;;;;5.85;67.06;93540.59;5052691;28;20021;-44
2021/01/03 01:25:31;;;;;;;6.25;2.90;;;;;;;5.81;67.43;93545.59;5052583;28;20416;-40
2021/01/03 01:27:57;;;;;;;8.70;3.33;;;;;;;5.80;67.59;93546.84;5052760;28;20037;-40
2021/01/03 01:30:23;;;;;;;4.00;2.42;;;;;;;5.77;67.77;93558.84;5052717;28;20017;-43
2021/01/03 01:32:49;;;;;;;8.52;4.18;;;;;;;5.78;68.38;93563.03;5052630;28;20021;-41
2021/01/03 01:35:20;;;;;;;7.78;4.35;;;;;;;5.85;67.66;93548.06;5052695;28;20026;-41
2021/01/03 01:37:45;;;;;;;5.82;3.35;;;;;;;5.98;67.45;93539.94;5052566;28;20024;-41
2021/01/03 01:40:13;;;;;;;6.55;3.53;;;;;;;5.95;67.46;93517.06;5052348;28;20162;-44
2021/01/03 01:42:38;;;;;;;6.22;4.13;;;;;;;6.13;67.39;93528.56;5052400;28;20497;-39
2021/01/03 01:45:07;;;;;;;8.25;3.53;;;;;;;6.12;67.35;93519.59;5052126;28;20033;-39
2021/01/03 01:47:34;;;;;;;8.40;4.10;;;;;;;6.08;68.13;93528.13;5052527;28;20037;-39
2021/01/03 01:50:03;;;;;;;5.47;3.10;;;;;;;6.07;68.40;93526.63;5034451;28;20508;-40
2021/01/03 01:52:32;;;;;;;5.55;3.65;;;;;;;6.11;69.06;93526.31;5052225;28;20032;-40
2021/01/03 01:55:02;;;;;;;11.77;3.97;;;;;;;6.06;70.33;93524.41;5034705;28;20476;-40
2021/01/03 01:57:40;;;;;;;11.35;5.20;;;;;;;5.92;71.47;93525.56;5052171;28;20025;-39
2021/01/03 02:00:16;;;;;;;11.83;5.20;;;;;;;5.76;72.36;93519.00;5052073;28;20144;-40
2021/01/03 02:03:02;;;;;;;8.65;4.15;;;;;;;5.85;73.38;93517.91;5052082;28;20274;-40
2021/01/03 02:05:29;;;;;;;7.15;4.45;;;;;;;5.80;73.88;93508.50;5051627;28;20044;-39
2021/01/03 02:07:57;;;;;;;6.65;4.68;;;;;;;5.80;74.67;93505.75;5034342;28;20029;-40
2021/01/03 02:10:33;;;;;;;8.30;4.47;;;;;;;5.62;76.25;93503.72;5051735;28;20033;-44
2021/01/03 02:13:25;;;;;;;12.25;5.53;;;;;;;5.67;76.76;93505.66;5052176;28;20028;-41
2021/01/03 02:15:52;;;;;;;10.32;5.43;;;;;;;5.51;78.15;93503.84;5051818;28;20032;-41
2021/01/03 02:18:19;;;;;;;12.85;5.82;;;;;;;5.38;78.84;93498.25;5051901;28;20520;-42
2021/01/03 02:21:12;;;;;;;10.25;5.85;;;;;;;5.28;80.13;93499.88;5051660;28;20068;-40
2021/01/03 02:23:40;;;;;;;7.95;5.00;;;;;;;5.44;79.61;93500.94;5051863;28;20116;-41
2021/01/03 02:26:06;;;;;;;10.55;5.22;;;;;;;5.38;79.97;93496.28;5051955;28;20032;-43
2021/01/03 02:28:37;;;;;;;12.32;5.82;;;;;;;5.37;80.02;93483.09;5033912;28;20485;-44
2021/01/03 02:31:03;;;;;;;7.53;5.47;;;;;;;5.32;80.36;93479.16;5051513;28;20028;-39
2021/01/03 02:34:05;;;;;;;17.67;6.20;;;;;;;5.30;80.69;93481.69;5051096;28;20050;-41
2021/01/03 02:36:36;;;;;;;13.05;6.32;;;;;;;5.35;80.41;93471.91;5008382;28;20048;-40
2021/01/03 02:39:29;;;;;;;13.43;6.78;;;;;;;5.38;80.07;93468.88;5032637;28;20025;-41
2021/01/03 02:42:15;;;;;;;11.55;5.82;;;;;;;5.41;79.57;93466.38;5050540;28;20033;-41
2021/01/03 02:44:41;;;;;;;7.72;5.47;;;;;;;5.28;80.32;93486.19;5049960;28;20704;-44
2021/01/03 02:47:06;;;;;;;8.88;5.05;;;;;;;5.21;80.56;93481.28;5050317;28;20041;-41
2021/01/03 02:49:32;;;;;;;9.88;5.70;;;;;;;5.23;80.85;93478.75;5050963;28;20116;-40
2021/01/03 02:52:00;;;;;;;10.52;5.50;;;;;;;5.26;80.60;93473.00;5033542;28;20100;-40
2021/01/03 02:54:25;;;;;;;15.25;5.75;;;;;;;5.39;79.99;93477.84;5033588;28;20111;-42
2021/01/03 02:56:51;;;;;;;12.63;5.97;;;;;;;5.40;79.73;93476.59;5051162;28;20021;-39
2021/01/03 02:59:16;;;;;;;20.95;6.00;;;;;;;5.45;79.66;93473.06;5051073;28;20044;-39
2021/01/03 03:01:42;;;;;;;11.20;5.75;;;;;;;5.41;79.59;93480.06;5051196;28;20056;-38
2021/01/03 03:04:07;;;;;;;12.73;5.72;;;;;;;5.41;79.69;93472.59;5051150;28;20108;-40
2021/01/03 03:06:32;;;;;;;9.15;5.88;;;;;;;5.46;79.78;93471.06;5051349;28;20017;-41
2021/01/03 03:08:58;;;;;;;13.80;6.07;;;;;;;5.50;79.44;93485.19;5051115;28;20017;-41
2021/01/03 03:11:23;;;;;;;9.95;5.57;;;;;;;5.55;79.13;93482.38;5051109;28;20512;-40
2021/01/03 03:13:49;;;;;;;13.82;6.47;;;;;;;5.62;78.85;93478.31;5051145;28;20017;-41
2021/01/03 03:16:18;;;;;;;13.30;5.68;;;;;;;5.70;78.47;93477.22;5051055;28;20017;-41
2021/01/03 03:18:43;;;;;;;;;;;;;;;5.76;78.21;93464.19;5051473;28;20108;-39
2021/01/03 03:21:08;;;;;;;12.45;5.72;;;;;;;5.74;77.77;93461.22;5050384;28;19999;-40
2021/01/03 03:23:34;;;;;;;9.75;6.43;;;;;;;5.84;77.83;93467.13;5050271;28;20452;-40
2021/01/03 03:25:59;;;;;;;8.38;5.20;;;;;;;5.82;77.43;93467.63;5051077;28;20100;-39
2021/01/03 03:28:25;;;;;;;13.98;5.38;;;;;;;5.80;77.34;93453.72;5050943;28;20032;-39
2021/01/03 03:30:50;;;;;;;10.73;6.30;;;;;;;5.82;77.51;93466.88;5050927;28;20025;-39
2021/01/03 03:33:15;;;;;;;11.77;6.35;;;;;;;5.83;77.57;93473.84;5050830;28;20061;-40
2021/01/03 03:35:41;;;;;;;10.73;5.60;;;;;;;5.81;77.52;93468.88;5050877;28;20021;-41
2021/01/03 03:38:07;;;;;;;10.73;6.00;;;;;;;5.82;77.43;93461.41;5050962;28;20025;-40
2021/01/03 03:40:37;;;;;;;11.20;6.32;;;;;;;5.73;78.16;93469.97;5050869;28;20048;-40
2021/01/03 03:43:02;;;;;;;9.70;6.15;;;;;;;5.73;78.63;93470.72;5035177;28;20047;-39
2021/01/03 03:45:27;;;;;;;8.95;5.18;;;;;;;5.78;78.75;93467.16;5054056;28;20553;-40
2021/01/03 03:47:53;;;;;;;14.57;7.13;;;;;;;5.84;78.57;93465.13;5054628;28;20017;-40
2021/01/03 03:50:22;;;;;;;12.45;5.82;;;;;;;5.81;79.37;93462.66;5054457;28;20013;-40
2021/01/03 03:52:48;;;;;;;17.30;7.28;;;;;;;5.85;79.46;93465.84;5036913;28;20024;-41
2021/01/03 03:55:14;;;;;;;14.55;7.68;;;;;;;5.89;79.77;93463.59;5054507;28;20027;-40
2021/01/03 03:57:39;;;;;;;9.35;5.68;;;;;;;5.92;79.83;93459.78;5054489;28;20416;-41
2021/01/03 04:00:14;;;;;;;12.18;6.97;;;;;;;5.88;79.95;93470.31;5054437;28;20029;-40
2021/01/03 04:02:43;;;;;;;9.88;6.38;;;;;;;5.82;80.64;93462.16;5054455;28;20425;-41
2021/01/03 04:05:18;;;;;;;13.55;7.03;;;;;;;5.87;80.85;93461.34;5054259;28;20021;-41
2021/01/03 04:07:44;;;;;;;18.25;7.18;;;;;;;5.75;81.12;93457.25;5054496;28;20472;-41
2021/01/03 04:10:10;;;;;;;14.73;7.00;;;;;;;5.63;81.86;93455.91;5054320;28;20025;-41
2021/01/03 04:12:36;;;;;;;14.07;8.32;;;;;;;5.67;82.15;93452.88;5054190;28;20020;-42
2021/01/03 04:15:04;;;;;;;13.48;6.93;;;;;;;5.62;82.20;93451.69;5054178;28;20108;-43
2021/01/03 04:17:29;;;;;;;11.90;7.13;;;;;;;5.65;82.53;93447.19;5054181;28;20044;-41
2021/01/03 04:19:55;;;;;;;13.73;6.95;;;;;;;5.69;82.44;93445.63;5053840;28;20525;-41
2021/01/03 04:22:20;;;;;;;13.73;6.70;;;;;;;5.73;82.17;93445.31;5053801;28;20024;-42
2021/01/03 04:24:45;;;;;;;11.52;6.28;;;;;;;5.59;82.40;93447.22;5053922;28;20029;-41
2021/01/03 04:27:11;;;;;;;12.68;6.93;;;;;;;5.62;83.13;93453.69;5053891;28;20021;-39
2021/01/03 04:29:37;;;;;;;11.60;7.15;;;;;;;5.59;83.05;93446.50;5053863;28;20021;-40
2021/01/03 04:32:08;;;;;;;10.90;7.03;;;;;;;5.68;83.07;93455.09;5053663;28;20044;-43
2021/01/03 04:34:35;;;;;;;15.45;7.03;;;;;;;5.68;83.05;93455.09;5053797;28;20071;-39
2021/01/03 04:37:01;;;;;;;12.43;6.05;;;;;;;5.68;83.35;93454.34;5040990;28;20108;-41
2021/01/03 04:39:28;;;;;;;9.95;5.88;;;;;;;5.63;83.53;93471.59;5053888;28;20493;-42
2021/01/03 04:42:30;;;;;;;10.45;6.38;;;;;;;5.73;83.68;93473.47;5053505;28;20036;-43
2021/01/03 04:45:04;;;;;;;16.13;5.57;;;;;;;5.71;83.87;93470.50;5035878;28;20071;-42
2021/01/03 04:47:36;;;;;;;13.75;6.28;;;;;;;5.69;83.98;93478.50;5053455;28;20517;-43
2021/01/03 04:50:23;;;;;;;10.10;6.13;;;;;;;5.60;84.26;93473.38;5035782;28;20025;-42
2021/01/03 04:53:20;;;;;;;10.00;5.70;;;;;;;5.71;84.16;93475.97;5035396;28;20078;-41
2021/01/03 04:55:49;;;;;;;9.55;6.07;;;;;;;5.71;84.42;93475.25;5053449;28;20032;-42
2021/01/03 04:58:14;;;;;;;13.48;6.13;;;;;;;5.88;84.13;93476.53;5053418;28;20467;-40
2021/01/03 05:01:27;;;;;;;9.60;5.10;;;;;;;5.74;84.03;93472.19;5053392;28;20041;-39
2021/01/03 05:04:07;;;;;;;10.77;5.10;;;;;;;5.80;84.13;93475.63;4953350;29;20035;-40
2021/01/03 05:06:34;;;;;;;7.88;4.82;;;;;;;5.85;84.09;93474.81;5050497;28;20124;-40
2021/01/03 05:09:02;;;;;;;13.93;5.47;;;;;;;5.82;84.00;93473.09;5053161;28;20116;-40
2021/01/03 05:11:33;;;;;;;8.32;5.50;;;;;;;5.88;83.96;93467.56;5035189;28;20029;-39
2021/01/03 05:14:10;;;;;;;9.00;5.63;;;;;;;5.92;83.62;93460.53;5035329;28;20060;-38
2021/01/03 05:16:36;;;;;;;10.55;5.82;;;;;;;5.85;83.85;93455.66;5053323;28;20448;-40
2021/01/03 05:19:01;;;;;;;8.35;5.40;;;;;;;6.04;83.29;93450.91;5053008;28;20094;-41
2021/01/03 05:21:49;;;;;;;8.10;5.95;;;;;;;5.93;83.30;93451.06;5052900;28;20500;-40
2021/01/03 05:24:15;;;;;;;12.20;5.87;;;;;;;5.83;83.42;93447.19;5052821;28;20021;-40
2021/01/03 05:26:41;;;;;;;9.48;5.15;;;;;;;5.85;83.85;93444.69;5034743;28;20036;-39
2021/01/03 05:29:10;;;;;;;10.27;6.25;;;;;;;5.89;83.57;93442.38;5052632;28;20040;-41
2021/01/03 05:31:36;;;;;;;9.00;4.85;;;;;;;5.86;83.65;93442.69;5052844;28;20031;-40
2021/01/03 05:34:08;;;;;;;7.25;5.00;;;;;;;5.79;84.15;93444.00;5052830;28;20052;-40
2021/01/03 05:36:44;;;;;;;11.93;5.35;;;;;;;5.69;84.56;93442.16;5034976;28;20033;-41
2021/01/03 05:39:21;;;;;;;6.97;4.40;;;;;;;5.65;85.23;93436.22;5035267;28;20479;-39
2021/01/03 05:41:47;;;;;;;9.55;4.32;;;;;;;5.60;85.62;93440.50;5052664;28;20068;-41
2021/01/03 05:44:24;;;;;;;8.40;4.97;;;;;;;5.57;85.74;93447.00;5052646;28;20456;-40
2021/01/03 05:47:12;;;;;;;6.88;4.28;;;;;;;5.61;85.77;93449.47;5052123;28;20048;-40
2021/01/03 05:49:37;;;;;;;6.93;4.83;;;;;;;5.60;85.76;93453.47;5052239;28;20115;-39
2021/01/03 05:52:23;;;;;;;9.25;5.35;;;;;;;5.50;85.76;93458.53;5017958;28;20370;-39
2021/01/03 05:54:49;;;;;;;10.40;6.13;;;;;;;5.59;86.02;93471.88;5034600;28;20053;-40
2021/01/03 05:57:25;;;;;;;11.45;5.53;;;;;;;5.56;85.70;93472.19;5034597;28;20460;-42
2021/01/03 05:59:51;;;;;;;9.07;4.63;;;;;;;5.60;85.39;93480.84;5034434;28;20075;-41
2021/01/03 06:02:26;;;;;;;7.50;4.60;;;;;;;5.61;85.54;93474.84;5052403;28;20017;-42
2021/01/03 06:05:08;;;;;;;13.25;6.35;;;;;;;5.63;85.44;93475.06;5051386;28;20039;-41
2021/01/03 06:07:35;;;;;;;8.05;5.50;;;;;;;5.51;85.75;93479.19;5051910;28;20056;-42
2021/01/03 06:10:00;;;;;;;9.50;5.50;;;;;;;5.48;85.96;93482.25;5034099;28;20043;-40
2021/01/03 06:12:28;;;;;;;9.38;5.28;;;;;;;5.58;85.63;93475.88;5051889;28;20025;-41
2021/01/03 06:15:06;;;;;;;10.15;6.13;;;;;;;5.51;85.73;93456.53;5051993;28;20390;-41
2021/01/03 06:17:43;;;;;;;9.85;5.28;;;;;;;5.63;85.39;93475.06;5051491;28;20116;-41
2021/01/03 06:20:17;;;;;;;10.90;6.32;;;;;;;5.68;85.17;93484.47;5051658;28;20033;-40
2021/01/03 06:22:51;;;;;;;11.57;6.20;;;;;;;5.70;84.99;93487.44;5051808;28;20429;-40
2021/01/03 06:25:56;;;;;;;10.50;6.10;;;;;;;5.75;84.62;93483.91;5051695;28;20028;-40
2021/01/03 06:28:21;;;;;;;8.23;5.50;;;;;;;5.68;84.82;93487.97;5033981;28;20074;-40
2021/01/03 06:30:58;;;;;;;9.18;5.57;;;;;;;5.79;84.73;93496.06;5051553;28;20549;-40
2021/01/03 06:33:24;;;;;;;10.90;6.43;;;;;;;5.85;83.88;93496.00;5034093;28;20098;-39
2021/01/03 06:35:57;;;;;;;11.00;6.70;;;;;;;5.81;84.18;93496.28;5051578;28;20098;-41
2021/01/03 06:38:53;;;;;;;9.93;5.40;;;;;;;5.70;84.65;93493.66;5051562;28;20048;-40
2021/01/03 06:41:24;;;;;;;12.32;6.85;;;;;;;5.71;84.67;93495.16;5033545;28;20386;-40
2021/01/03 06:44:02;;;;;;;10.98;6.35;;;;;;;5.73;84.87;93498.13;5051530;28;20493;-40
2021/01/03 06:46:39;;;;;;;16.83;7.47;;;;;;;5.79;84.48;93501.53;5030090;28;20498;-40
2021/01/03 06:49:33;;;;;;;12.05;6.38;;;;;;;5.84;84.25;93500.00;5030582;28;20030;-39
2021/01/03 06:52:35;;;;;;;16.13;7.70;;;;;;;5.87;84.04;93498.97;5031484;28;20521;-38
2021/01/03 06:55:32;;;;;;;10.85;6.43;;;;;;;5.76;84.42;93499.81;5031384;28;20489;-38
2021/01/03 06:58:09;;;;;;;13.02;7.35;;;;;;;5.76;84.37;93502.56;5030292;28;20576;-39
2021/01/03 07:00:41;;;;;;;10.48;7.47;;;;;;;5.93;84.01;93507.88;5031286;28;20025;-40
2021/01/03 07:03:17;;;;;;;38.33;20.80;;;;;;;5.86;83.86;93506.47;5031292;28;20029;-40
2021/01/03 07:05:52;;;;;;;28.02;15.90;;;;;;;5.91;84.09;93522.06;5030107;28;20036;-41
2021/01/03 07:08:17;;;;;;;26.85;14.10;;;;;;;5.93;84.16;93510.63;5014263;28;20113;-40
2021/01/03 07:10:44;;;;;;;23.08;13.77;;;;;;;6.05;83.63;93511.94;5010415;28;20105;-40
2021/01/03 07:13:29;;;;;;;24.45;12.82;;;;;;;6.11;83.53;93502.38;5027979;28;20044;-40
2021/01/03 07:15:57;;;;;;;22.95;11.05;;;;;;;6.17;83.15;93499.59;5036864;28;20103;-40
2021/01/03 07:18:26;;;;;;;14.55;8.38;;;;;;;6.26;82.76;93509.44;5034021;28;20028;-41
2021/01/03 07:21:11;;;;;;;14.43;8.13;;;;;;;6.32;82.28;93512.84;5045692;28;20013;-41
2021/01/03 07:23:42;;;;;;;16.58;6.68;;;;;;;6.28;82.08;93506.91;5041478;28;20029;-41
2021/01/03 07:26:23;;;;;;;18.25;8.68;;;;;;;6.28;82.26;93521.34;5043852;28;20047;-39
2021/01/03 07:28:53;;;;;;;14.18;7.97;;;;;;;6.19;82.61;93524.47;5035256;28;20048;-39
2021/01/03 07:31:21;;;;;;;20.70;11.52;;;;;;;6.05;83.24;93526.41;5034945;28;20029;-43
2021/01/03 07:34:01;;;;;;;18.05;9.02;;;;;;;6.11;83.22;93526.31;5035004;28;20028;-39
2021/01/03 07:36:35;;;;;;;;;;;;;;;5.99;83.46;93528.47;5035406;28;20486;-40
2021/01/03 07:39:22;;;;;;;25.08;8.73;;;;;;;5.91;84.29;93526.84;5034983;28;19951;-39
2021/01/03 07:41:49;;;;;;;22.23;9.73;;;;;;;5.93;84.29;93530.50;5035263;28;20033;-39
2021/01/03 07:44:20;;;;;;;19.20;8.70;;;;;;;5.94;84.19;93539.47;5034847;28;20473;-39
2021/01/03 07:46:54;;;;;;;18.67;8.55;;;;;;;5.92;84.06;93540.00;5063201;28;20097;-37
2021/01/03 07:49:24;;;;;;;19.70;8.52;;;;;;;5.86;84.53;93544.06;5074567;28;20036;-38
2021/01/03 07:51:50;;;;;;;20.98;8.25;;;;;;;5.94;84.39;93542.22;5074531;28;20475;-39
2021/01/03 07:54:15;;;;;;;19.80;10.00;;;;;;;5.89;84.53;93543.06;5074488;28;20116;-39
2021/01/03 07:56:40;;;;;;;18.90;9.55;;;;;;;5.87;85.25;93543.53;5074439;28;20162;-39
2021/01/03 07:59:06;;;;;;;21.60;10.60;;;;;;;6.01;84.96;93549.88;5074408;28;20115;-40
2021/01/03 08:01:33;;;;;;;25.80;12.82;;;;;;;6.06;84.80;93555.28;5074297;28;20032;-43
2021/01/03 08:04:21;;;;;;;20.35;10.48;;;;;;;6.20;84.53;93549.88;5074297;28;20024;-40
2021/01/03 08:06:47;;;;;;;30.73;14.13;;;;;;;6.34;83.61;93554.19;5063820;28;20120;-40
2021/01/03 08:09:23;;;;;;;42.33;19.10;;;;;;;6.38;83.18;93549.91;5065852;28;20107;-39
2021/01/03 08:11:49;;;;;;;32.50;17.58;;;;;;;6.47;82.88;93546.03;5074056;28;20576;-39
2021/01/03 08:14:24;;;;;;;29.83;15.63;;;;;;;6.53;82.93;93544.69;5052418;28;20025;-39
2021/01/03 08:16:49;;;;;;;31.35;14.65;;;;;;;6.53;82.78;93543.97;5057536;28;20025;-39
2021/01/03 08:19:21;;;;;;;27.95;13.02;;;;;;;6.68;82.32;93539.50;5053322;28;20562;-40
2021/01/03 08:21:53;;;;;;;25.65;12.70;;;;;;;6.62;82.65;93540.84;5054117;28;20020;-41
2021/01/03 08:24:19;;;;;;;25.50;11.85;;;;;;;6.71;82.14;93538.44;5062260;28;20223;-39
2021/01/03 08:26:52;;;;;;;27.20;13.73;;;;;;;6.78;81.93;93554.31;5061854;28;20033;-43
2021/01/03 08:29:19;;;;;;;27.00;15.95;;;;;;;6.86;81.95;93559.94;5034231;28;20029;-43
2021/01/03 08:31:50;;;;;;;40.60;20.30;;;;;;;6.88;81.92;93565.66;5057861;28;20039;-44
2021/01/03 08:34:19;;;;;;;33.03;15.85;;;;;;;6.86;81.97;93571.63;5038219;28;20053;-41
2021/01/03 08:36:44;;;;;;;38.35;19.20;;;;;;;6.98;81.50;93571.47;5072664;28;20028;-41
2021/01/03 08:39:14;;;;;;;30.00;15.95;;;;;;;7.07;81.24;93571.84;5072614;28;20031;-43
2021/01/03 08:41:49;;;;;;;36.55;14.85;;;;;;;7.10;80.66;93578.28;5072629;28;20032;-43
2021/01/03 08:44:19;;;;;;;30.90;14.63;;;;;;;7.08;80.71;93581.53;5072483;28;20024;-42
2021/01/03 08:46:45;;;;;;;33.25;14.73;;;;;;;7.20;80.43;93571.88;5054590;28;20516;-41
2021/01/03 08:49:10;;;;;;;26.10;13.45;;;;;;;7.20;80.41;93577.38;5072622;28;20020;-43
2021/01/03 08:51:38;;;;;;;28.83;17.75;;;;;;;7.34;80.43;93578.88;5071950;28;20020;-42
2021/01/03 08:54:09;;;;;;;24.92;13.23;;;;;;;7.35;79.88;93585.88;5072257;28;20020;-43
2021/01/03 08:56:43;;;;;;;28.33;12.52;;;;;;;7.35;79.86;93588.59;5072074;28;20035;-43
2021/01/03 08:59:12;;;;;;;25.77;14.77;;;;;;;7.36;79.62;93587.31;5069785;28;20119;-38
2021/01/03 09:01:38;;;;;;;26.73;14.77;;;;;;;7.35;79.73;93602.34;5049911;28;20412;-39
2021/01/03 09:04:07;;;;;;;34.85;16.95;;;;;;;7.43;79.36;93603.19;5043768;28;20033;-38
2021/01/03 09:06:33;;;;;;;29.45;15.45;;;;;;;7.28;79.93;93602.19;5057372;28;20090;-39
2021/01/03 09:09:17;;;;;;;25.20;13.88;;;;;;;7.53;79.67;93609.78;5044607;28;20502;-38
2021/01/03 09:12:02;;;;;;;29.98;15.30;;;;;;;7.37;79.65;93621.78;5043641;28;20044;-39
2021/01/03 09:14:45;;;;;;;28.13;15.68;;;;;;;7.47;79.73;93608.41;5044810;28;20035;-40
2021/01/03 09:17:19;;;;;;;31.13;15.45;;;;;;;7.54;79.04;93605.75;5044776;28;20475;-40
2021/01/03 09:19:57;;;;;;;26.50;13.32;;;;;;;7.55;79.42;93607.25;5042513;28;20020;-39
2021/01/03 09:22:24;;;;;;;29.63;13.55;;;;;;;7.46;79.75;93607.66;5062725;28;20115;-39
2021/01/03 09:24:56;;;;;;;22.10;12.95;;;;;;;7.58;79.83;93617.19;5051643;28;20028;-39
2021/01/03 09:27:26;;;;;;;19.20;10.32;;;;;;;7.57;79.34;93612.97;5033870;28;20063;-40
2021/01/03 09:29:54;;;;;;;23.00;11.93;;;;;;;7.51;80.13;93606.81;5051581;28;20021;-41
2021/01/03 09:32:30;;;;;;;22.15;12.88;;;;;;;7.57;79.85;93607.47;5060126;28;20032;-40
2021/01/03 09:34:58;;;;;;;28.98;13.90;;;;;;;7.71;79.27;93602.00;5059920;28;20024;-40
2021/01/03 09:37:29;;;;;;;26.38;13.80;;;;;;;7.76;78.88;93599.13;5060979;28;20051;-38
2021/01/03 09:40:22;;;;;;;21.73;12.07;;;;;;;7.64;78.70;93601.34;5057303;28;20036;-40
2021/01/03 09:43:14;;;;;;;31.65;15.32;;;;;;;7.67;78.86;93605.03;5062694;28;20504;-39
2021/01/03 09:46:07;;;;;;;22.67;11.32;;;;;;;7.75;78.64;93602.44;5048790;28;20052;-39
2021/01/03 09:48:39;;;;;;;19.60;11.32;;;;;;;7.79;78.83;93602.84;5041623;28;20044;-39
2021/01/03 09:51:29;;;;;;;21.52;11.60;;;;;;;7.87;78.40;93601.69;5050966;28;20515;-40
2021/01/03 09:54:18;;;;;;;35.25;14.98;;;;;;;7.88;78.43;93605.19;5051296;28;20068;-39
2021/01/03 09:56:45;;;;;;;33.35;17.25;;;;;;;7.89;78.67;93612.16;5033068;28;20036;-40
2021/01/03 09:59:16;;;;;;;28.60;15.88;;;;;;;7.87;78.87;93600.94;5050919;28;20028;-42
2021/01/03 10:01:43;;;;;;;28.45;14.65;;;;;;;7.97;78.57;93607.53;5032901;28;20520;-42
2021/01/03 10:04:14;;;;;;;30.08;14.00;;;;;;;8.03;78.15;93597.91;5053444;28;20040;-41
2021/01/03 10:06:41;;;;;;;33.30;16.55;;;;;;;8.05;77.69;93580.88;5059969;28;20029;-41
2021/01/03 10:09:23;;;;;;;29.75;14.77;;;;;;;8.09;77.50;93598.53;5060218;28;20033;-41
2021/01/03 10:11:49;;;;;;;41.55;19.05;;;;;;;8.01;78.15;93600.41;5060662;28;20170;-40
2021/01/03 10:14:26;;;;;;;35.00;18.90;;;;;;;7.86;79.19;93585.75;5076668;28;20096;-39
2021/01/03 10:16:51;;;;;;;27.02;14.00;;;;;;;8.02;78.16;93570.91;5070762;28;20090;-39
2021/01/03 10:19:21;;;;;;;30.00;16.05;;;;;;;8.23;77.56;93582.75;5070594;28;20421;-39
2021/01/03 10:21:48;;;;;;;31.77;16.02;;;;;;;8.36;77.48;93588.28;5070391;28;20041;-41
2021/01/03 10:24:20;;;;;;;29.15;15.23;;;;;;;8.45;77.64;93578.84;5060532;28;20094;-39
2021/01/03 10:27:05;;;;;;;33.25;17.75;;;;;;;8.66;76.78;93576.91;5066993;28;20415;-41
2021/01/03 10:29:31;;;;;;;29.27;15.55;;;;;;;8.91;76.76;93586.34;5090324;28;20031;-39
2021/01/03 10:31:57;;;;;;;28.55;14.93;;;;;;;9.03;76.00;93579.34;5090523;28;20141;-40
2021/01/03 10:34:23;;;;;;;29.15;14.63;;;;;;;8.96;75.38;93586.25;5067880;28;20448;-41
2021/01/03 10:36:52;;;;;;;34.45;17.65;;;;;;;8.83;75.82;93582.78;5054890;28;20041;-40
2021/01/03 10:39:17;;;;;;;26.75;14.18;;;;;;;8.68;76.41;93577.88;5050278;28;20032;-41
2021/01/03 10:41:43;;;;;;;28.95;14.32;;;;;;;8.89;75.93;93583.41;5050319;28;20033;-42
2021/01/03 10:44:10;;;;;;;23.95;13.00;;;;;;;8.99;75.30;93576.91;5066661;28;20028;-41
2021/01/03 10:46:37;;;;;;;21.60;11.15;;;;;;;8.78;75.29;93567.88;5071301;28;20048;-41
2021/01/03 10:49:04;;;;;;;20.10;10.15;;;;;;;8.87;75.33;93567.44;5052095;28;20036;-42
2021/01/03 10:51:34;;;;;;;19.35;10.50;;;;;;;9.01;74.58;93557.81;5069249;28;20592;-42
2021/01/03 10:54:00;;;;;;;21.83;9.75;;;;;;;8.59;75.85;93561.78;5069944;28;20449;-40
2021/01/03 10:56:26;;;;;;;20.08;11.07;;;;;;;8.33;77.53;93554.34;5071176;28;20033;-40
2021/01/03 10:58:52;;;;;;;22.92;12.48;;;;;;;8.30;77.82;93557.38;5069907;28;20370;-43
2021/01/03 11:01:19;;;;;;;19.15;9.88;;;;;;;8.34;77.47;93542.03;5057763;28;20536;-40
2021/01/03 11:03:44;;;;;;;23.35;12.32;;;;;;;8.23;78.18;93550.50;5064843;28;20066;-48
2021/01/03 11:06:09;;;;;;;18.65;10.50;;;;;;;8.32;77.84;93546.59;5054231;28;20501;-41
2021/01/03 11:08:37;;;;;;;24.95;12.70;;;;;;;8.44;78.07;93534.09;5060152;28;20521;-41
2021/01/03 11:11:03;;;;;;;22.35;13.95;;;;;;;8.55;77.54;93538.63;5069838;28;20025;-41
2021/01/03 11:13:28;;;;;;;21.73;12.15;;;;;;;8.57;78.18;93538.81;5071329;28;20513;-40
2021/01/03 11:15:54;;;;;;;20.15;10.88;;;;;;;8.48;78.11;93533.75;5071284;28;20500;-41
2021/01/03 11:18:19;;;;;;;21.33;10.32;;;;;;;8.58;78.21;93532.03;5071247;28;20028;-41
2021/01/03 11:20:44;;;;;;;17.85;11.07;;;;;;;8.58;77.76;93532.03;5069245;28;20576;-43
2021/01/03 11:23:10;;;;;;;21.83;12.82;;;;;;;8.46;78.53;93530.81;5050986;28;20029;-42
2021/01/03 11:25:37;;;;;;;26.02;13.45;;;;;;;8.60;78.49;93527.47;5051150;28;20391;-40
2021/01/03 11:28:03;;;;;;;20.52;10.63;;;;;;;8.82;77.27;93521.47;5050864;28;20032;-39
2021/01/03 11:30:28;;;;;;;15.82;9.80;;;;;;;8.92;76.25;93508.72;5051014;28;20071;-41
2021/01/03 11:32:54;;;;;;;16.92;9.23;;;;;;;9.13;75.89;93506.72;5042149;28;20036;-39
2021/01/03 11:35:20;;;;;;;15.85;9.32;;;;;;;8.96;75.34;93511.91;5069931;28;20082;-40
2021/01/03 11:37:49;;;;;;;17.02;9.57;;;;;;;8.73;76.35;93507.41;5070816;28;20060;-39
2021/01/03 11:40:16;;;;;;;17.52;10.18;;;;;;;8.60;77.59;93507.50;5070828;28;20032;-41
2021/01/03 11:42:41;;;;;;;20.63;11.48;;;;;;;8.59;77.78;93506.00;5070977;28;20040;-40
2021/01/03 11:45:18;;;;;;;15.15;9.32;;;;;;;8.69;77.55;93507.00;5070671;28;20031;-43
2021/01/03 11:47:43;;;;;;;24.40;11.15;;;;;;;8.85;78.37;93508.66;5068155;28;20032;-42
2021/01/03 11:50:11;;;;;;;19.20;10.00;;;;;;;8.74;77.42;93512.41;5084039;28;20027;-40